カーブル の空港の天気 - METARとTAF

カーブル国際空港 ( OAKB / KBL ) - アフガニスタン カーブル
飛行場実況気象(Metar)
観測時間02/21 19:20 AFT (02/21 14:50 UTC)
風向・風速西 1m/s
視程7000m
天気現象
全天の4割程度の雲 雲底高度 3050m
全天の8割程度の雲 雲底高度 3660m
気温10℃
湿度40%
気圧1025hPa
METAROAKB 211450Z 27002KT 7000 SCT100 BKN120 10/M03 Q1025 RMK A3029 WHT WHT
過去の天気等 Google飛行場航空写真 Wunderground天気予報

過去48時間のMETAR

飛行場予報(TAF)
発表時間: 2/21 15:35 AFT (2/21 11:05 UTC)
予報対象時間: 21日16時 AFT ~ 22日16時 AFT
風向・風速不定 1m/s
視程10km以上
なし
21日17時 AFT ~ 21日18時 AFT に徐々に
全天の4割程度の雲 雲底高度 3050m
全天の8割程度の雲 雲底高度 4270m
21日19時 AFT ~ 21日20時 AFT に徐々に
全天の8割程度の雲 雲底高度 2440m
21日20時 AFT ~ 21日23時 AFT に一時的に
視程5000m
天気現象
22日1時 AFT ~ 22日2時 AFT に徐々に
全天の4割程度の雲 雲底高度 3050m
22日4時 AFT ~ 22日5時 AFT に徐々に
視程10km以上
なし
OAKB 211105Z 2112/2212 VRB02KT CAVOK
BECMG 2113/2114 SCT100 BKN140
BECMG 2115/2116 BKN080
TEMPO 2116/2119 5000 FU
BECMG 2121/2122 SCT100
BECMG 2200/2201 CAVOK PRO30 2202/2205 5000 FU